Time;durP1;ratioP1;P1;durP2;ratioP2;P2;SDS_P1;SDS_P2;PMS_P1;PMS_P2;Temp;Humidity;BMP_temperature;BMP_pressure;BME280_temperature;BME280_humidity;BME280_pressure;Samples;Min_cycle;Max_cycle;Signal;HPM_P1;HPM_P2
2022/04/27 00:02:02;;;;;;;7.45;5.85;;;7.50;99.90;;;6.52;100.00;98008.22;5022052;28;20087;-71
2022/04/27 00:04:30;;;;;;;7.10;5.68;;;7.30;99.90;;;6.41;100.00;98015.28;5019851;28;20507;-71
2022/04/27 00:06:57;;;;;;;10.02;6.45;;;7.20;99.90;;;6.25;100.00;98014.75;5021033;28;20045;-70
2022/04/27 00:09:24;;;;;;;6.70;5.30;;;7.10;99.90;;;6.35;100.00;98016.28;5022188;28;20050;-71
2022/04/27 00:11:51;;;;;;;7.97;5.63;;;7.10;99.90;;;6.45;100.00;98007.50;5020362;28;20052;-70
2022/04/27 00:14:19;;;;;;;7.30;4.30;;;7.10;99.90;;;6.34;100.00;98000.81;5019664;28;20061;-70
2022/04/27 00:16:46;;;;;;;8.23;5.90;;;7.10;99.90;;;5.83;100.00;98001.69;5023452;28;20103;-70
2022/04/27 00:19:13;;;;;;;10.02;6.70;;;7.00;99.90;;;5.86;100.00;98007.66;4992970;28;20049;-70
2022/04/27 00:21:40;;;;;;;10.07;6.68;;;6.90;99.90;;;5.97;100.00;98004.06;5020562;28;20712;-71
2022/04/27 00:24:07;;;;;;;9.75;5.53;;;6.90;99.90;;;5.88;100.00;98005.03;5022323;28;20104;-70
2022/04/27 00:26:34;;;;;;;9.35;6.90;;;6.80;99.90;;;5.61;100.00;98004.63;5018461;28;20133;-71
2022/04/27 00:29:01;;;;;;;9.30;6.90;;;6.60;99.90;;;5.48;100.00;98010.00;5021985;28;20081;-70
2022/04/27 00:31:29;;;;;;;10.13;7.97;;;6.40;99.90;;;5.34;100.00;98016.22;5020616;28;20045;-71
2022/04/27 00:33:57;;;;;;;11.18;8.60;;;6.30;99.90;;;5.48;100.00;98017.72;5022044;28;20137;-70
2022/04/27 00:36:24;;;;;;;8.07;5.47;;;6.30;99.90;;;5.69;100.00;98017.38;5020033;28;20540;-71
2022/04/27 00:38:51;;;;;;;7.22;5.55;;;6.40;99.90;;;5.64;100.00;98014.03;5019338;28;20050;-70
2022/04/27 00:41:18;;;;;;;9.25;7.15;;;6.50;99.90;;;5.50;100.00;98005.69;5019038;28;20108;-71
2022/04/27 00:43:46;;;;;;;8.20;6.60;;;6.40;99.90;;;5.42;100.00;98004.06;5018669;28;20140;-70
2022/04/27 00:46:13;;;;;;;9.43;7.00;;;6.30;99.90;;;5.36;100.00;98004.16;5018932;28;20133;-71
2022/04/27 00:48:41;;;;;;;10.00;6.72;;;6.20;99.90;;;5.39;100.00;98011.00;5021488;28;20054;-70
2022/04/27 00:51:21;;;;;;;9.60;7.40;;;6.20;99.90;;;5.31;100.00;98011.09;5021131;28;20054;-70
2022/04/27 00:53:50;;;;;;;10.57;7.65;;;6.30;99.90;;;5.20;100.00;97995.81;5018445;28;20073;-70
2022/04/27 00:56:21;;;;;;;7.13;5.53;;;6.10;99.90;;;5.05;100.00;98003.75;5018938;28;20140;-71
2022/04/27 00:58:48;;;;;;;7.43;5.90;;;6.10;99.90;;;4.96;100.00;98001.31;5020160;28;20085;-71
2022/04/27 01:01:18;;;;;;;7.38;5.90;;;6.00;99.90;;;4.93;100.00;98009.06;5018493;28;20050;-71
2022/04/27 01:03:45;;;;;;;8.05;6.47;;;5.90;99.90;;;4.96;100.00;98020.16;5021988;28;20069;-71
2022/04/27 01:06:13;;;;;;;9.43;6.88;;;5.90;99.90;;;4.99;100.00;98014.09;5017796;28;20059;-71
2022/04/27 01:08:40;;;;;;;8.05;6.55;;;5.80;99.90;;;4.98;100.00;98020.13;5016879;28;20116;-72
2022/04/27 01:11:07;;;;;;;9.55;6.90;;;5.80;99.90;;;5.00;100.00;98018.41;5020261;28;20156;-71
2022/04/27 01:13:34;;;;;;;8.57;7.13;;;5.80;99.90;;;4.98;100.00;98028.69;5019091;28;20120;-71
2022/04/27 01:16:02;;;;;;;12.13;7.80;;;5.80;99.90;;;4.94;100.00;98034.75;5020048;28;20084;-71
2022/04/27 01:18:31;;;;;;;10.85;8.48;;;5.80;99.90;;;4.79;100.00;98037.53;5018396;28;20037;-71
2022/04/27 01:20:58;;;;;;;12.43;9.70;;;5.70;99.90;;;4.87;100.00;98035.69;5021945;28;20111;-71
2022/04/27 01:23:26;;;;;;;10.93;9.32;;;5.80;99.90;;;5.01;100.00;98033.78;5020640;28;20140;-71
2022/04/27 01:26:05;;;;;;;11.70;9.15;;;5.80;99.90;;;4.93;100.00;98035.63;5020414;28;20144;-71
2022/04/27 01:28:35;;;;;;;10.57;7.93;;;5.80;99.90;;;4.82;100.00;98030.63;5019898;28;20092;-71
2022/04/27 01:31:10;;;;;;;8.95;7.13;;;5.80;99.90;;;4.83;100.00;98028.88;5007144;28;20402;-71
2022/04/27 01:33:39;;;;;;;8.15;6.63;;;5.80;99.90;;;4.85;100.00;98028.88;5020900;28;20064;-71
2022/04/27 01:36:10;;;;;;;8.65;6.18;;;5.70;99.90;;;4.77;100.00;98024.69;5017160;28;20053;-71
2022/04/27 01:38:39;;;;;;;8.38;6.65;;;5.70;99.90;;;4.66;100.00;98029.09;5017581;28;20124;-71
2022/04/27 01:41:07;;;;;;;7.40;5.53;;;5.80;99.90;;;4.87;100.00;98024.56;5018073;28;20045;-71
2022/04/27 01:43:35;;;;;;;12.73;7.78;;;5.70;99.90;;;4.64;100.00;98027.44;5017056;28;20141;-71
2022/04/27 01:46:05;;;;;;;7.65;5.70;;;5.60;99.90;;;4.78;100.00;98026.38;5002586;28;20419;-71
2022/04/27 01:48:33;;;;;;;8.75;6.38;;;5.60;99.90;;;4.77;100.00;98028.97;5017810;28;20081;-71
2022/04/27 01:51:00;;;;;;;8.50;6.30;;;5.60;99.90;;;4.77;100.00;98034.13;5020781;28;20085;-71
2022/04/27 02:00:20;;;;;;;7.25;5.43;;;5.60;99.90;;;4.79;100.00;98034.97;5016897;28;20045;-70
2022/04/27 02:02:48;;;;;;;6.95;5.63;;;5.60;99.90;;;4.55;100.00;98036.94;5020187;28;20445;-70
2022/04/27 02:05:16;;;;;;;9.63;7.68;;;5.60;99.90;;;4.52;100.00;98036.97;5019779;28;20094;-70
2022/04/27 02:07:45;;;;;;;9.68;8.50;;;5.40;99.90;;;4.41;100.00;98036.25;5016579;28;20054;-71
2022/04/27 02:10:12;;;;;;;11.57;8.30;;;5.40;99.90;;;4.32;100.00;98033.75;5023999;28;20103;-70
2022/04/27 02:12:39;;;;;;;11.68;8.30;;;5.30;99.90;;;4.21;100.00;98038.16;5021413;28;20156;-70
2022/04/27 02:15:09;;;;;;;10.82;8.25;;;5.10;99.90;;;4.16;100.00;98038.22;5021429;28;20153;-70
2022/04/27 02:17:36;;;;;;;12.38;10.02;;;5.10;99.90;;;4.09;100.00;98044.28;5019444;28;20123;-70
2022/04/27 02:20:04;;;;;;;11.80;9.43;;;5.00;99.90;;;4.15;100.00;98047.63;5011427;28;20398;-70
2022/04/27 02:22:34;;;;;;;11.55;9.52;;;5.10;99.90;;;4.12;100.00;98049.38;5023103;28;20041;-69
2022/04/27 02:25:02;;;;;;;9.70;7.65;;;5.10;99.90;;;4.05;100.00;98052.88;5019813;28;20062;-70
2022/04/27 02:27:30;;;;;;;8.63;7.28;;;5.00;99.90;;;3.96;100.00;98043.53;5001205;28;20153;-70
2022/04/27 02:29:57;;;;;;;9.70;7.22;;;4.90;99.90;;;3.85;100.00;98053.03;5020791;28;22181;-72
2022/04/27 02:32:24;;;;;;;10.38;8.32;;;4.80;99.90;;;3.83;100.00;98052.19;5022723;28;20414;-71
2022/04/27 02:34:51;;;;;;;11.52;8.57;;;4.70;99.90;;;3.82;100.00;98061.63;5021845;28;20041;-71
2022/04/27 02:37:18;;;;;;;10.70;7.85;;;4.70;99.90;;;3.87;100.00;98059.84;5020498;28;20057;-72
2022/04/27 02:39:45;;;;;;;12.43;9.88;;;4.70;99.90;;;3.80;100.00;98060.78;5020761;28;20038;-72
2022/04/27 02:42:12;;;;;;;12.48;10.00;;;4.70;99.90;;;3.93;100.00;98058.97;5015436;28;20065;-71
2022/04/27 02:44:39;;;;;;;14.00;11.65;;;4.80;99.90;;;3.86;100.00;98060.72;5015462;28;20160;-70
2022/04/27 02:47:07;;;;;;;11.25;9.35;;;4.70;99.90;;;3.69;100.00;98065.97;5019736;28;20060;-71
2022/04/27 02:52:19;;;;;;;12.55;8.30;;;4.60;99.90;;;3.68;100.00;98058.31;5022319;28;20104;-70
2022/04/27 02:54:46;;;;;;;10.98;8.48;;;4.60;99.90;;;3.68;100.00;98060.88;5022373;28;20073;-71
2022/04/27 02:57:13;;;;;;;11.57;8.98;;;4.60;99.90;;;3.69;100.00;98060.00;5019371;28;20047;-71
2022/04/27 02:59:41;;;;;;;10.80;8.10;;;4.60;99.90;;;3.69;100.00;98062.56;5020706;28;20090;-71
2022/04/27 03:02:09;;;;;;;10.52;8.43;;;4.60;99.90;;;3.60;100.00;98067.75;5020522;28;20065;-71
2022/04/27 03:04:36;;;;;;;10.10;8.05;;;4.60;99.90;;;3.65;100.00;98064.31;5019837;28;20165;-70
2022/04/27 03:07:05;;;;;;;9.00;7.20;;;4.60;99.90;;;3.69;100.00;98065.97;5023797;28;20577;-71
2022/04/27 03:09:33;;;;;;;10.40;7.60;;;4.70;99.90;;;3.58;100.00;98062.66;5019229;28;20388;-71
2022/04/27 03:12:00;;;;;;;10.85;8.48;;;4.70;99.90;;;3.57;100.00;98058.38;5016657;28;20427;-72
2022/04/27 03:14:28;;;;;;;8.65;7.60;;;4.60;99.90;;;3.64;100.00;98054.06;5021188;28;20089;-72
2022/04/27 03:16:56;;;;;;;9.77;7.13;;;4.50;99.90;;;3.43;100.00;98055.91;5001884;28;20465;-72
2022/04/27 03:19:24;;;;;;;11.68;7.65;;;4.50;99.90;;;3.48;100.00;98056.72;5008079;28;20091;-72
2022/04/27 03:21:51;;;;;;;8.40;6.32;;;4.50;99.90;;;3.56;100.00;98048.97;5020673;28;20144;-72
2022/04/27 03:24:18;;;;;;;11.70;9.35;;;4.40;99.90;;;3.47;100.00;98065.28;5024289;28;20072;-71
2022/04/27 03:26:47;;;;;;;9.95;7.88;;;4.40;99.90;;;3.50;100.00;98061.84;5020293;28;20100;-71
2022/04/27 03:29:17;;;;;;;16.35;11.35;;;4.40;99.90;;;3.35;100.00;98060.22;5021606;28;20172;-71
2022/04/27 03:31:44;;;;;;;12.95;9.93;;;4.40;99.90;;;3.25;100.00;98066.28;5021890;28;20132;-72
2022/04/27 03:34:11;;;;;;;14.18;11.50;;;4.30;99.90;;;3.31;100.00;98071.38;5022838;28;20058;-70
2022/04/27 03:36:38;;;;;;;19.45;13.88;;;4.30;99.90;;;3.26;100.00;98068.84;5021047;28;20075;-71
2022/04/27 03:39:05;;;;;;;17.02;12.75;;;4.30;99.90;;;3.37;100.00;98068.75;5024504;28;20129;-71
2022/04/27 03:41:32;;;;;;;16.67;13.07;;;4.30;99.90;;;3.32;100.00;98073.91;5019716;28;20045;-71
2022/04/27 03:43:59;;;;;;;16.73;13.40;;;4.30;99.90;;;3.26;100.00;98081.69;5016489;28;20053;-72
2022/04/27 03:46:26;;;;;;;19.30;14.32;;;4.30;99.90;;;3.32;100.00;98079.06;5022179;28;20045;-71
2022/04/27 03:49:13;;;;;;;19.25;13.95;;;4.30;99.90;;;3.25;100.00;98079.94;5019497;28;20049;-72
2022/04/27 03:51:40;;;;;;;24.58;17.25;;;4.30;99.90;;;3.33;100.00;98083.34;5021952;28;20512;-70
2022/04/27 03:54:07;;;;;;;28.77;17.20;;;4.30;99.90;;;3.44;100.00;98080.69;5022768;28;20140;-70
2022/04/27 03:56:34;;;;;;;23.67;17.90;;;4.40;99.90;;;3.47;100.00;98088.38;5018626;28;20073;-72
2022/04/27 03:59:01;;;;;;;17.48;13.70;;;4.40;99.90;;;3.36;100.00;98082.47;5019747;28;20155;-72
2022/04/27 04:01:28;;;;;;;21.80;15.40;;;4.40;99.90;;;3.34;100.00;98091.88;5001160;28;20419;-71
2022/04/27 04:03:58;;;;;;;21.20;15.68;;;4.30;99.90;;;3.30;100.00;98087.63;5020426;28;20053;-70
2022/04/27 04:06:25;;;;;;;17.83;15.15;;;4.20;99.90;;;3.16;100.00;98085.13;4993853;28;20737;-71
2022/04/27 04:08:52;;;;;;;17.55;13.15;;;4.20;99.90;;;3.03;100.00;98089.44;5023154;28;20053;-72
2022/04/27 04:11:20;;;;;;;24.77;16.20;;;4.20;99.90;;;3.17;100.00;98089.41;5023175;28;20132;-72
2022/04/27 04:13:47;;;;;;;20.55;15.18;;;4.20;99.90;;;3.24;100.00;98101.34;5018743;28;20049;-72
2022/04/27 04:16:14;;;;;;;16.52;12.60;;;4.20;99.90;;;3.25;100.00;98097.91;5020548;28;20207;-72
2022/04/27 04:18:41;;;;;;;23.90;16.23;;;4.20;99.90;;;3.24;100.00;98100.47;5021106;28;20044;-72
2022/04/27 04:21:10;;;;;;;26.65;18.33;;;4.20;99.90;;;3.34;100.00;98107.28;5020129;28;20061;-72
2022/04/27 04:23:36;;;;;;;23.00;17.55;;;4.20;99.90;;;3.26;100.00;98106.44;5018820;28;20042;-72
2022/04/27 04:28:49;;;;;;;24.48;18.90;;;4.40;99.90;;;3.55;100.00;98124.25;5020034;28;20141;-72
2022/04/27 04:31:17;;;;;;;24.33;18.40;;;4.60;99.90;;;3.68;100.00;98117.34;5020964;28;20441;-72
2022/04/27 04:33:45;;;;;;;21.02;16.67;;;4.60;99.90;;;3.83;100.00;98124.97;5017417;28;20072;-71
2022/04/27 04:36:12;;;;;;;17.83;13.80;;;4.80;99.90;;;3.98;100.00;98129.97;5003371;28;20140;-71
2022/04/27 04:38:39;;;;;;;17.15;13.40;;;4.90;99.90;;;4.00;100.00;98127.41;5020064;28;20075;-71
2022/04/27 04:41:06;;;;;;;14.95;11.40;;;4.90;99.90;;;4.14;100.00;98129.84;5020910;28;20596;-71
2022/04/27 04:43:33;;;;;;;14.00;11.90;;;4.90;99.90;;;4.06;100.00;98122.22;5017747;28;20132;-71
2022/04/27 04:46:00;;;;;;;17.52;13.25;;;4.90;99.90;;;4.18;100.00;98121.25;5020124;28;20458;-70
2022/04/27 04:48:27;;;;;;;28.67;18.45;;;5.00;99.90;;;4.18;100.00;98132.38;5019458;28;20045;-70
2022/04/27 04:50:54;;;;;;;26.60;20.00;;;5.10;99.90;;;4.22;100.00;98130.66;5022436;28;20113;-70
2022/04/27 04:53:21;;;;;;;34.15;25.20;;;5.20;99.90;;;4.33;100.00;98136.56;5020616;28;20073;-70
2022/04/27 04:55:48;;;;;;;28.73;23.88;;;5.20;99.90;;;4.48;100.00;98145.84;5018370;28;20097;-70
2022/04/27 04:58:15;;;;;;;37.00;27.50;;;5.40;99.90;;;4.65;100.00;98147.38;5021536;28;20049;-70
2022/04/27 05:00:43;;;;;;;28.58;22.73;;;5.50;99.90;;;4.58;100.00;98150.03;5021934;28;20045;-70
2022/04/27 05:03:11;;;;;;;37.67;28.48;;;5.70;99.90;;;4.78;100.00;98154.13;5020672;28;20058;-70
2022/04/27 05:05:39;;;;;;;41.17;31.58;;;5.70;99.90;;;4.85;100.00;98152.34;5018760;28;20129;-70
2022/04/27 05:08:07;;;;;;;41.00;31.80;;;5.80;99.90;;;4.84;100.00;98151.50;5019338;28;20140;-70
2022/04/27 05:10:35;;;;;;;44.58;33.22;;;5.90;99.90;;;4.92;100.00;98152.25;5007257;28;20042;-70
2022/04/27 05:13:03;;;;;;;35.92;30.10;;;5.90;99.90;;;4.80;100.00;98157.53;5017279;28;20057;-70
2022/04/27 05:15:31;;;;;;;38.95;29.77;;;5.90;99.90;;;4.73;100.00;98161.03;5022587;28;20061;-70
2022/04/27 05:17:58;;;;;;;38.50;30.17;;;5.90;99.90;;;4.80;100.00;98166.09;5018161;28;20073;-70
2022/04/27 05:20:25;;;;;;;41.10;30.85;;;5.90;99.90;;;4.74;100.00;98170.44;5015348;28;20111;-71
2022/04/27 05:22:52;;;;;;;36.45;29.35;;;5.90;99.90;;;4.85;100.00;98172.91;5020966;28;20140;-71
2022/04/27 05:25:20;;;;;;;47.33;33.38;;;5.90;99.90;;;4.96;100.00;98171.94;5014126;28;20080;-71
2022/04/27 05:27:48;;;;;;;43.63;34.15;;;6.00;99.90;;;5.16;100.00;98178.59;5009073;28;20135;-71
2022/04/27 05:33:03;;;;;;;45.72;33.90;;;6.30;99.90;;;5.54;100.00;98177.25;5020114;28;20062;-71
2022/04/27 05:35:30;;;;;;;41.17;30.70;;;6.50;99.90;;;5.74;100.00;98187.31;5018374;28;20073;-71
2022/04/27 05:37:57;;;;;;;42.85;33.13;;;6.70;99.90;;;5.74;100.00;98192.47;5023741;28;20520;-71
2022/04/27 05:40:25;;;;;;;40.92;32.80;;;6.80;99.90;;;5.88;100.00;98206.00;5019999;28;20380;-72
2022/04/27 05:42:52;;;;;;;37.55;29.15;;;6.90;99.90;;;6.13;100.00;98203.13;5004743;28;20061;-71
2022/04/27 05:45:19;;;;;;;43.70;34.72;;;7.10;99.90;;;6.13;100.00;98203.13;5019898;28;20144;-72
2022/04/27 05:47:46;;;;;;;41.70;34.25;;;7.20;99.90;;;6.11;100.00;98210.00;5020731;28;20530;-71
2022/04/27 05:50:13;;;;;;;40.97;33.70;;;7.20;99.90;;;6.18;100.00;98212.50;5022606;28;20093;-71
2022/04/27 05:52:56;;;;;;;44.70;34.30;;;7.30;99.90;;;6.32;100.00;98214.88;5020763;28;20080;-71
2022/04/27 05:55:23;;;;;;;43.05;32.63;;;7.30;99.90;;;6.41;100.00;98219.88;5004403;28;20060;-71
2022/04/27 05:57:50;;;;;;;43.22;32.78;;;7.50;99.90;;;6.51;100.00;98214.56;5017743;28;20060;-71
2022/04/27 06:00:19;;;;;;;40.45;31.98;;;7.50;99.90;;;6.61;100.00;98218.69;5021722;28;20127;-71
2022/04/27 06:02:46;;;;;;;37.22;31.05;;;7.60;99.90;;;6.60;100.00;98214.44;5021023;28;20105;-71
2022/04/27 06:05:13;;;;;;;42.90;35.35;;;7.80;99.90;;;6.65;100.00;98225.50;5019328;28;20045;-70
2022/04/27 06:07:41;;;;;;;38.33;31.83;;;7.80;99.90;;;6.92;100.00;98226.78;5019740;28;20041;-70
2022/04/27 06:10:09;;;;;;;37.83;32.22;;;7.90;99.90;;;6.81;100.00;98219.22;5002828;28;20176;-70
2022/04/27 06:12:46;;;;;;;39.28;32.67;;;8.10;99.90;;;7.05;100.00;98217.09;5001645;28;20130;-71
2022/04/27 06:15:14;;;;;;;36.88;31.17;;;8.20;99.90;;;7.07;100.00;98220.47;4989008;28;20719;-70
2022/04/27 06:17:47;;;;;;;34.83;29.98;;;8.20;99.90;;;7.19;100.00;98222.84;5019924;28;20049;-71
2022/04/27 06:20:14;;;;;;;36.78;31.27;;;8.40;99.90;;;7.13;100.00;98233.28;5020551;28;20080;-71
2022/04/27 06:22:41;;;;;;;37.17;31.52;;;8.40;99.90;;;7.27;100.00;98226.13;5007677;28;20124;-70
2022/04/27 06:25:09;;;;;;;34.92;31.10;;;8.50;99.90;;;7.31;100.00;98224.34;5021866;28;20073;-70
2022/04/27 06:27:36;;;;;;;37.17;29.10;;;8.60;99.90;;;7.39;100.00;98231.94;5018624;28;20049;-71
2022/04/27 06:30:05;;;;;;;35.00;25.05;;;8.70;99.90;;;7.40;100.00;98223.31;5021243;28;21393;-71
2022/04/27 06:32:33;;;;;;;35.50;26.00;;;8.70;99.90;;;7.31;100.00;98235.50;5017813;28;20049;-71
2022/04/27 06:35:00;;;;;;;32.97;25.73;;;8.80;99.90;;;7.46;100.00;98233.53;5017964;28;20137;-72
2022/04/27 06:37:28;;;;;;;36.05;26.38;;;8.80;99.90;;;7.46;100.00;98229.22;5019498;28;20089;-71
2022/04/27 06:39:55;;;;;;;39.83;25.83;;;8.80;99.90;;;7.63;100.00;98233.19;5017054;28;20057;-72
2022/04/27 06:42:22;;;;;;;34.05;24.58;;;8.90;99.90;;;7.63;100.00;98228.88;5017385;28;20563;-71
2022/04/27 06:44:49;;;;;;;34.25;26.58;;;8.80;99.90;;;7.52;100.00;98234.25;5016819;28;20054;-70
2022/04/27 06:47:16;;;;;;;33.88;26.13;;;8.90;99.90;;;7.66;100.00;98231.41;5021454;28;20056;-72
2022/04/27 06:49:43;;;;;;;33.65;23.80;;;8.90;99.90;;;7.72;100.00;98233.84;5020557;28;20484;-70
2022/04/27 06:52:11;;;;;;;45.92;26.63;;;9.00;99.90;;;7.56;100.00;98235.03;5019394;28;20053;-70
2022/04/27 06:54:38;;;;;;;32.75;24.92;;;9.10;99.90;;;7.95;100.00;98235.94;5022419;28;20468;-71
2022/04/27 06:57:05;;;;;;;33.65;23.58;;;9.20;99.90;;;7.96;100.00;98229.06;5021029;28;20496;-70
2022/04/27 06:59:32;;;;;;;30.95;24.55;;;9.20;99.90;;;8.00;100.00;98233.25;5022701;28;20113;-71
2022/04/27 07:02:00;;;;;;;32.40;24.70;;;9.30;99.90;;;8.01;100.00;98227.22;5026096;28;20053;-71
2022/04/27 07:04:28;;;;;;;29.73;22.83;;;9.30;99.90;;;8.24;100.00;98237.06;5021142;28;20052;-70
2022/04/27 07:06:55;;;;;;;33.42;25.30;;;9.50;99.90;;;8.30;100.00;98236.03;5019281;28;20611;-70
2022/04/27 07:09:23;;;;;;;29.75;23.60;;;9.60;99.90;;;8.50;100.00;98230.44;5018332;28;20052;-71
2022/04/27 07:11:49;;;;;;;29.70;22.33;;;9.80;99.90;;;8.89;100.00;98230.34;5020520;28;20136;-71
2022/04/27 07:14:17;;;;;;;35.03;24.40;;;9.90;99.90;;;8.68;100.00;98229.16;5022135;28;20057;-70
2022/04/27 07:16:45;;;;;;;31.50;24.20;;;10.00;99.90;;;8.93;100.00;98230.22;5019465;28;20049;-70
2022/04/27 07:19:12;;;;;;;33.70;24.23;;;10.20;99.90;;;8.65;100.00;98234.41;5024300;28;20054;-70
2022/04/27 07:21:40;;;;;;;29.23;22.50;;;10.30;99.90;;;8.85;100.00;98237.38;5017687;28;20057;-70
2022/04/27 07:24:07;;;;;;;31.85;25.00;;;10.30;99.90;;;8.82;100.00;98236.56;5020103;28;20559;-71
2022/04/27 07:26:35;;;;;;;31.58;24.63;;;10.30;99.90;;;8.89;100.00;98228.59;5018746;28;20041;-70
2022/04/27 07:29:02;;;;;;;35.58;24.50;;;10.20;99.90;;;8.65;100.00;98237.84;5018117;28;20140;-70
2022/04/27 07:31:29;;;;;;;32.78;25.40;;;10.10;99.90;;;8.83;100.00;98233.13;5019951;28;20160;-70
2022/04/27 07:33:56;;;;;;;34.33;25.85;;;10.10;99.90;;;8.94;100.00;98238.84;5020812;28;20141;-71
2022/04/27 07:36:23;;;;;;;34.97;26.33;;;10.20;99.90;;;8.76;100.00;98238.44;5021494;28;20996;-71
2022/04/27 07:38:56;;;;;;;30.40;24.40;;;10.10;99.90;;;8.82;100.00;98236.56;5016598;28;20473;-71
2022/04/27 07:41:24;;;;;;;36.65;27.92;;;10.00;99.90;;;8.70;100.00;98243.75;5015888;28;20096;-71
2022/04/27 07:43:51;;;;;;;36.38;26.08;;;10.10;99.90;;;8.89;100.00;98245.88;5022491;28;20141;-71
2022/04/27 07:46:18;;;;;;;35.58;28.30;;;10.20;99.90;;;8.92;100.00;98245.84;5023450;28;20065;-71
2022/04/27 07:48:45;;;;;;;31.13;23.92;;;10.20;99.90;;;9.03;100.00;98242.94;5022776;28;20042;-72
2022/04/27 07:51:12;;;;;;;30.90;23.85;;;10.30;99.90;;;9.33;100.00;98236.97;5006070;28;20103;-70
2022/04/27 07:53:39;;;;;;;35.30;27.23;;;10.40;99.90;;;8.79;100.00;98237.50;5019668;28;20053;-71
2022/04/27 07:56:06;;;;;;;37.92;27.27;;;10.20;99.90;;;8.66;100.00;98243.88;5019073;28;20584;-71
2022/04/27 07:58:34;;;;;;;33.70;26.65;;;10.10;99.90;;;8.83;100.00;98252.09;5021034;28;20141;-71
2022/04/27 08:01:08;;;;;;;38.30;26.50;;;10.20;99.90;;;9.16;100.00;98249.50;5021124;28;20058;-70
2022/04/27 08:03:35;;;;;;;35.55;25.10;;;10.30;99.90;;;9.09;100.00;98254.00;5022290;28;20046;-72
2022/04/27 08:06:04;;;;;;;35.83;27.25;;;10.40;99.90;;;8.91;100.00;98254.47;5018051;28;20049;-71
2022/04/27 08:08:31;;;;;;;35.13;28.08;;;10.30;99.90;;;8.88;100.00;98255.41;5023200;28;20045;-71
2022/04/27 08:10:59;;;;;;;43.70;31.67;;;10.30;99.90;;;8.98;100.00;98256.84;5020537;28;20132;-72
2022/04/27 08:13:26;;;;;;;39.30;26.90;;;10.30;99.90;;;9.02;100.00;98260.22;5019915;28;20049;-71
2022/04/27 08:15:53;;;;;;;52.38;32.35;;;10.30;99.90;;;9.15;100.00;98268.53;5018912;28;20145;-71
2022/04/27 08:18:20;;;;;;;43.92;27.80;;;10.40;99.90;;;9.18;100.00;98269.28;5021954;28;20060;-71
2022/04/27 08:23:34;;;;;;;28.73;23.17;;;;;;;10.09;100.00;98258.19;5019364;28;20041;-71
2022/04/27 08:26:04;;;;;;;23.45;19.70;;;11.20;99.90;;;10.61;100.00;98254.84;5016861;28;20530;-71
2022/04/27 08:28:33;;;;;;;26.85;20.83;;;11.70;99.90;;;10.10;100.00;98255.50;5019485;28;20068;-71
2022/04/27 08:31:00;;;;;;;27.60;21.05;;;11.60;99.90;;;10.07;100.00;98254.78;5018005;28;20482;-71
2022/04/27 08:33:28;;;;;;;25.58;21.17;;;11.50;99.90;;;10.44;100.00;98250.19;5019783;28;20083;-70
2022/04/27 08:35:57;;;;;;;25.67;20.92;;;11.70;99.90;;;10.62;100.00;98247.91;5021321;28;20115;-70
2022/04/27 08:38:45;;;;;;;23.25;18.88;;;11.90;99.90;;;11.21;100.00;98258.06;5022419;28;20042;-70
2022/04/27 08:41:12;;;;;;;21.77;18.35;;;12.20;99.90;;;11.66;100.00;98244.34;5017609;28;20507;-71
2022/04/27 08:43:39;;;;;;;18.45;16.30;;;12.60;99.90;;;12.42;100.00;98234.56;5017800;28;20518;-67
2022/04/27 08:46:08;;;;;;;20.83;16.92;;;13.20;99.90;;;12.57;100.00;98230.53;5016507;28;20147;-68
2022/04/27 08:48:36;;;;;;;19.85;16.38;;;13.60;99.90;;;12.67;100.00;98226.63;5019622;28;20052;-68
2022/04/27 08:51:04;;;;;;;17.85;15.07;;;13.70;99.90;;;12.27;100.00;98214.34;5018709;28;20063;-68
2022/04/27 08:53:33;;;;;;;21.08;17.15;;;13.50;99.90;;;11.76;100.00;98221.44;5018435;28;20144;-68
2022/04/27 08:56:01;;;;;;;22.08;18.27;;;13.20;99.90;;;11.51;100.00;98235.34;5018317;28;20765;-70
2022/04/27 08:58:28;;;;;;;24.38;20.35;;;12.90;99.90;;;12.23;100.00;98229.25;5002067;28;20787;-67
2022/04/27 09:01:12;;;;;;;17.92;14.80;;;13.00;99.90;;;13.01;100.00;98225.25;5019468;28;20065;-68
2022/04/27 09:03:40;;;;;;;18.67;16.67;;;13.40;99.90;;;13.06;100.00;98223.28;4999289;28;20096;-70
2022/04/27 09:06:13;;;;;;;69.57;46.30;;;13.70;99.90;;;13.88;100.00;98224.97;5016421;28;20042;-71
2022/04/27 09:08:40;;;;;;;21.13;16.55;;;14.50;99.90;;;14.89;100.00;98224.53;5020683;28;20085;-69
2022/04/27 09:11:20;;;;;;;14.00;12.50;;;15.00;99.90;;;14.47;100.00;98217.88;5020546;28;20063;-68
2022/04/27 09:13:55;;;;;;;14.40;11.05;;;15.20;99.90;;;13.76;100.00;98218.53;5018052;28;20049;-70
2022/04/27 09:16:26;;;;;;;14.45;12.10;;;14.70;99.90;;;13.42;100.00;98222.66;5018713;28;20069;-70
2022/04/27 09:21:53;;;;;;;13.13;10.70;;;14.80;99.90;;;14.67;100.00;98220.38;5016781;28;20059;-69
2022/04/27 09:24:20;;;;;;;11.60;10.00;;;15.00;99.90;;;14.45;100.00;98215.31;5017781;28;20084;-68
2022/04/27 09:27:13;;;;;;;12.60;10.50;;;15.10;99.90;;;14.45;100.00;98220.53;5019117;28;20051;-68
2022/04/27 09:29:40;;;;;;;11.10;9.27;;;15.20;99.90;;;15.08;100.00;98219.25;5019614;28;20562;-67
2022/04/27 09:32:08;;;;;;;11.73;10.38;;;15.30;99.90;;;15.24;100.00;98228.84;5023067;28;20464;-70
2022/04/27 09:34:48;;;;;;;12.85;10.57;;;15.50;99.90;;;14.68;100.00;98226.44;5000851;28;20091;-69
2022/04/27 09:37:21;;;;;;;15.10;12.15;;;15.40;99.90;;;13.93;100.00;98230.81;5000957;28;20089;-69
2022/04/27 09:40:13;;;;;;;12.05;10.85;;;15.30;99.90;;;13.84;100.00;98218.19;5020133;28;20096;-68
2022/04/27 09:42:46;;;;;;;88.18;52.78;;;15.00;99.90;;;13.98;100.00;98218.38;5016417;28;20057;-69
2022/04/27 09:45:23;;;;;;;118.60;76.45;;;14.70;99.90;;;14.70;100.00;98219.38;5016787;28;20137;-68
2022/04/27 09:48:04;;;;;;;11.85;10.55;;;15.00;99.90;;;14.87;100.00;98215.94;5016333;28;20150;-69
2022/04/27 09:50:55;;;;;;;13.63;12.00;;;15.20;99.90;;;14.56;100.00;98202.63;5018105;28;20120;-69
2022/04/27 09:53:22;;;;;;;13.82;11.63;;;15.40;99.90;;;15.71;100.00;98210.78;5018293;28;20076;-68
2022/04/27 09:55:54;;;;;;;17.02;13.70;;;15.90;99.90;;;15.18;100.00;98220.47;5017206;28;20120;-70
2022/04/27 09:58:25;;;;;;;13.90;10.80;;;16.10;99.90;;;15.86;100.00;98212.59;5001480;28;20089;-68
2022/04/27 10:01:04;;;;;;;12.68;10.77;;;16.60;99.90;;;16.10;100.00;98216.50;4993457;28;20049;-69
2022/04/27 10:03:35;;;;;;;11.77;10.23;;;;;;;16.76;100.00;98203.22;5018398;28;20045;-68
2022/04/27 10:06:04;;;;;;;10.40;9.35;;;17.40;99.90;;;17.14;100.00;98208.88;4990310;28;20145;-69
2022/04/27 10:08:35;;;;;;;11.50;8.40;;;17.30;99.90;;;18.09;100.00;98203.09;5015720;28;20132;-69
2022/04/27 10:11:04;;;;;;;10.73;8.65;;;18.00;99.90;;;17.98;100.00;98206.41;5015763;28;20136;-68
2022/04/27 10:13:32;;;;;;;11.40;8.18;;;18.20;99.90;;;19.00;100.00;98211.25;5022115;28;20049;-69
2022/04/27 10:16:00;;;;;;;12.77;11.20;;;18.70;99.90;;;18.76;100.00;98208.41;5018729;28;20106;-68
2022/04/27 10:18:29;;;;;;;11.32;9.57;;;18.80;99.90;;;16.81;100.00;98191.59;5015792;28;20895;-70
2022/04/27 10:20:56;;;;;;;12.85;9.70;;;18.20;99.90;;;16.64;100.00;98205.59;5015867;28;20081;-69
2022/04/27 10:23:28;;;;;;;12.38;11.07;;;17.80;99.90;;;14.91;100.00;98222.69;5016060;28;20125;-68
2022/04/27 10:26:08;;;;;;;13.95;10.15;;;16.80;99.90;;;14.90;100.00;98221.88;5017647;28;20415;-69
2022/04/27 10:28:38;;;;;;;10.48;9.38;;;16.30;99.90;;;15.05;100.00;98215.00;5016690;28;20076;-70
2022/04/27 10:31:07;;;;;;;12.35;10.13;;;16.20;99.90;;;15.10;100.00;98210.41;5021487;28;20045;-68
2022/04/27 10:33:41;;;;;;;12.18;10.05;;;16.20;99.90;;;14.54;100.00;98219.25;5022080;28;20046;-70
2022/04/27 10:36:40;;;;;;;12.27;9.77;;;16.10;99.90;;;15.01;100.00;98211.72;5022883;28;20165;-68
2022/04/27 10:39:16;;;;;;;12.55;10.38;;;15.90;99.90;;;15.99;100.00;98199.69;5000409;28;20046;-69
2022/04/27 10:41:52;;;;;;;10.80;8.55;;;16.40;99.90;;;15.91;100.00;98201.88;5020466;28;20140;-68